Time;durP1;ratioP1;P1;durP2;ratioP2;P2;SDS_P1;SDS_P2;PMS_P1;PMS_P2;Temp;Humidity;BMP_temperature;BMP_pressure;BME280_temperature;BME280_humidity;BME280_pressure;Samples;Min_cycle;Max_cycle;Signal;HPM_P1;HPM_P2
2021/08/27 00:00:40;;;;;;;4.45;3.42;;;14.10;73.00;;;;;;4985429;28;20169;-64
2021/08/27 00:03:05;;;;;;;4.25;3.40;;;14.10;73.10;;;;;;4984307;28;20038;-64
2021/08/27 00:05:31;;;;;;;5.75;3.45;;;14.10;73.30;;;;;;4983259;28;20473;-64
2021/08/27 00:07:57;;;;;;;6.65;3.70;;;14.00;73.30;;;;;;4985496;28;20030;-65
2021/08/27 00:10:23;;;;;;;4.13;3.50;;;14.00;73.50;;;;;;4984474;28;20078;-65
2021/08/27 00:12:49;;;;;;;4.35;3.33;;;13.90;73.50;;;;;;4983746;28;20034;-65
2021/08/27 00:15:15;;;;;;;4.18;3.60;;;13.90;73.50;;;;;;4986069;28;20034;-64
2021/08/27 00:17:40;;;;;;;4.75;3.80;;;13.80;73.70;;;;;;4986929;28;20449;-64
2021/08/27 00:20:07;;;;;;;4.85;3.80;;;13.80;74.00;;;;;;4986010;28;20041;-64
2021/08/27 00:22:34;;;;;;;4.57;3.60;;;13.70;74.10;;;;;;4983598;28;20038;-64
2021/08/27 00:24:59;;;;;;;5.60;3.90;;;13.70;74.20;;;;;;4985775;28;20026;-64
2021/08/27 00:27:25;;;;;;;5.32;3.70;;;13.60;74.40;;;;;;4986097;28;20037;-64
2021/08/27 00:29:51;;;;;;;4.10;3.63;;;13.60;74.70;;;;;;4985872;28;20042;-64
2021/08/27 00:32:17;;;;;;;5.70;3.95;;;13.50;74.70;;;;;;4983568;28;20376;-64
2021/08/27 00:34:42;;;;;;;5.53;3.88;;;13.50;74.90;;;;;;4983545;28;20050;-64
2021/08/27 00:37:08;;;;;;;5.55;4.07;;;13.40;75.10;;;;;;4983806;28;20045;-65
2021/08/27 00:39:34;;;;;;;6.55;4.30;;;13.40;75.30;;;;;;4985987;28;20057;-64
2021/08/27 00:41:59;;;;;;;4.57;3.88;;;13.30;75.40;;;;;;4985190;28;20037;-64
2021/08/27 00:44:25;;;;;;;5.40;4.40;;;13.40;75.60;;;;;;4973733;28;20751;-64
2021/08/27 00:46:51;;;;;;;6.32;4.03;;;13.30;75.70;;;;;;4970788;28;20047;-64
2021/08/27 00:49:17;;;;;;;6.25;4.50;;;13.20;75.70;;;;;;4973527;28;20101;-64
2021/08/27 00:51:43;;;;;;;4.95;3.90;;;13.20;75.80;;;;;;4976233;28;20062;-64
2021/08/27 00:54:09;;;;;;;5.38;3.97;;;13.20;75.80;;;;;;4974766;28;20035;-64
2021/08/27 00:56:35;;;;;;;5.03;3.83;;;13.20;75.80;;;;;;4983288;28;20549;-64
2021/08/27 00:59:01;;;;;;;8.07;4.25;;;13.20;76.00;;;;;;4982102;28;20042;-64
2021/08/27 01:01:27;;;;;;;5.13;4.13;;;13.20;76.00;;;;;;4970125;28;20039;-63
2021/08/27 01:03:55;;;;;;;7.20;3.95;;;13.30;76.20;;;;;;4970622;28;20047;-64
2021/08/27 01:06:53;;;;;;;5.70;4.32;;;13.30;76.30;;;;;;4982870;28;20092;-64
2021/08/27 01:09:36;;;;;;;4.25;3.60;;;13.30;77.30;;;;;;4977906;28;20061;-64
2021/08/27 01:12:17;;;;;;;5.25;3.90;;;13.30;77.30;;;;;;4992962;28;20138;-63
2021/08/27 01:15:06;;;;;;;5.28;3.65;;;13.30;77.60;;;;;;4981451;28;20043;-64
2021/08/27 01:17:39;;;;;;;5.60;3.83;;;13.30;77.90;;;;;;4978684;28;20045;-64
2021/08/27 01:20:23;;;;;;;5.78;3.65;;;13.30;77.30;;;;;;4979532;28;20033;-63
2021/08/27 01:23:16;;;;;;;4.95;3.28;;;13.30;77.70;;;;;;4972577;28;20058;-64
2021/08/27 01:25:51;;;;;;;3.97;3.53;;;13.30;77.50;;;;;;4994978;28;20085;-64
2021/08/27 01:28:21;;;;;;;6.28;3.70;;;13.40;77.30;;;;;;4984096;28;20085;-63
2021/08/27 01:31:07;;;;;;;4.95;3.97;;;13.40;77.30;;;;;;4979823;28;20030;-64
2021/08/27 01:33:35;;;;;;;5.85;4.07;;;13.40;77.70;;;;;;4979320;28;20037;-64
2021/08/27 01:36:03;;;;;;;4.47;3.70;;;13.50;77.30;;;;;;4971182;28;20042;-64
2021/08/27 01:38:39;;;;;;;5.20;3.67;;;13.60;77.50;;;;;;4976820;28;20066;-64
2021/08/27 01:41:09;;;;;;;4.68;3.92;;;13.60;77.80;;;;;;4973961;28;20030;-64
2021/08/27 01:43:36;;;;;;;5.00;3.55;;;13.60;77.50;;;;;;4975776;28;20050;-64
2021/08/27 01:46:03;;;;;;;5.53;3.78;;;13.70;78.20;;;;;;4976030;28;20118;-64
2021/08/27 01:48:32;;;;;;;4.78;3.60;;;13.70;77.30;;;;;;4969159;28;20146;-64
2021/08/27 01:50:57;;;;;;;6.28;3.95;;;13.80;77.50;;;;;;4977307;28;20035;-64
2021/08/27 01:53:25;;;;;;;5.45;3.78;;;13.80;77.30;;;;;;4975136;28;20090;-64
2021/08/27 01:55:51;;;;;;;5.35;3.58;;;13.80;77.30;;;;;;4977910;28;20030;-64
2021/08/27 01:58:17;;;;;;;5.80;3.63;;;13.90;77.30;;;;;;4988216;28;20501;-64
2021/08/27 02:00:43;;;;;;;5.25;3.38;;;13.90;77.30;;;;;;4980308;28;20053;-64
2021/08/27 02:03:10;;;;;;;5.50;3.80;;;13.90;77.20;;;;;;4986307;28;20035;-64
2021/08/27 02:05:38;;;;;;;4.53;3.85;;;14.00;77.20;;;;;;4976292;28;20625;-64
2021/08/27 02:08:04;;;;;;;5.80;3.78;;;14.00;77.20;;;;;;4981917;28;20169;-64
2021/08/27 02:10:30;;;;;;;6.05;3.55;;;14.00;77.10;;;;;;4980380;28;20113;-64
2021/08/27 02:12:56;;;;;;;5.53;4.25;;;14.00;77.10;;;;;;4983259;28;20031;-64
2021/08/27 02:15:23;;;;;;;6.85;4.03;;;14.10;77.10;;;;;;4984335;28;20038;-64
2021/08/27 02:17:49;;;;;;;5.18;3.90;;;14.10;77.10;;;;;;4980093;28;20559;-64
2021/08/27 02:20:15;;;;;;;4.18;3.35;;;14.10;77.20;;;;;;4983291;28;20034;-63
2021/08/27 02:22:43;;;;;;;4.82;3.70;;;14.10;77.10;;;;;;4979703;28;20030;-64
2021/08/27 02:25:15;;;;;;;6.80;3.70;;;14.10;77.10;;;;;;4979988;28;20039;-64
2021/08/27 02:27:44;;;;;;;4.05;3.40;;;14.10;77.30;;;;;;4985472;28;20050;-64
2021/08/27 02:30:11;;;;;;;4.47;3.92;;;14.20;77.20;;;;;;4987589;28;20092;-64
2021/08/27 02:32:38;;;;;;;5.15;3.83;;;14.20;77.20;;;;;;4994810;28;20034;-64
2021/08/27 02:35:06;;;;;;;4.10;3.67;;;14.20;77.20;;;;;;4975280;28;20034;-64
2021/08/27 02:37:36;;;;;;;5.68;3.55;;;14.30;77.20;;;;;;4980420;28;20502;-63
2021/08/27 02:40:03;;;;;;;5.10;3.92;;;14.30;77.20;;;;;;4977575;28;20054;-64
2021/08/27 02:42:31;;;;;;;4.88;3.70;;;14.30;77.20;;;;;;4997920;28;20050;-65
2021/08/27 02:45:01;;;;;;;4.70;3.88;;;14.40;77.20;;;;;;4979481;28;20030;-64
2021/08/27 02:47:27;;;;;;;5.03;3.90;;;14.40;77.20;;;;;;4983750;28;20030;-64
2021/08/27 02:49:53;;;;;;;4.55;3.60;;;14.40;77.10;;;;;;4971187;28;20406;-64
2021/08/27 02:52:57;;;;;;;4.35;3.65;;;14.40;77.00;;;;;;4979823;28;20045;-64
2021/08/27 02:55:36;;;;;;;4.50;3.28;;;14.50;77.50;;;;;;4979814;28;20042;-64
2021/08/27 02:58:16;;;;;;;5.43;3.78;;;14.50;77.20;;;;;;4993706;28;20038;-64
2021/08/27 03:00:54;;;;;;;6.60;3.90;;;14.50;77.30;;;;;;4978299;28;20101;-64
2021/08/27 03:03:26;;;;;;;5.32;3.35;;;14.50;77.00;;;;;;4996861;28;20120;-64
2021/08/27 03:05:56;;;;;;;3.78;3.33;;;14.50;76.80;;;;;;4977698;28;20077;-64
2021/08/27 03:08:23;;;;;;;5.40;3.38;;;14.60;76.90;;;;;;4981357;28;20030;-64
2021/08/27 03:11:14;;;;;;;5.30;3.67;;;14.60;76.80;;;;;;4978091;28;20046;-64
2021/08/27 03:13:55;;;;;;;4.60;3.22;;;14.60;77.30;;;;;;4984229;28;20465;-64
2021/08/27 03:16:23;;;;;;;3.80;3.15;;;14.60;76.80;;;;;;4984720;28;20088;-64
2021/08/27 03:19:05;;;;;;;4.63;2.95;;;14.70;76.60;;;;;;4992906;28;20046;-64
2021/08/27 03:21:46;;;;;;;4.05;3.00;;;14.70;76.70;;;;;;4979724;28;20038;-64
2021/08/27 03:24:20;;;;;;;6.03;3.75;;;14.70;76.80;;;;;;4979098;28;20038;-64
2021/08/27 03:26:50;;;;;;;4.53;3.58;;;14.70;77.30;;;;;;4976163;28;20077;-64
2021/08/27 03:29:18;;;;;;;5.10;3.70;;;14.70;76.60;;;;;;4980179;28;20038;-64
2021/08/27 03:31:44;;;;;;;4.22;3.20;;;14.70;76.80;;;;;;4974681;28;20035;-64
2021/08/27 03:34:11;;;;;;;3.97;3.40;;;14.70;76.80;;;;;;4983594;28;20085;-64
2021/08/27 03:36:39;;;;;;;6.05;3.75;;;14.70;76.80;;;;;;4975740;28;20046;-64
2021/08/27 03:39:06;;;;;;;5.47;3.75;;;14.80;76.90;;;;;;4981596;28;20088;-64
2021/08/27 03:41:34;;;;;;;5.15;3.67;;;14.80;77.10;;;;;;4981556;28;20030;-64
2021/08/27 03:44:01;;;;;;;5.57;3.63;;;14.80;77.10;;;;;;4976781;28;20119;-64
2021/08/27 03:46:27;;;;;;;5.78;3.75;;;14.80;77.00;;;;;;4974526;28;20038;-64
2021/08/27 03:48:54;;;;;;;5.38;3.55;;;14.90;77.00;;;;;;4976470;28;20117;-64
2021/08/27 03:51:21;;;;;;;4.53;3.33;;;14.80;76.90;;;;;;4993796;28;20046;-64
2021/08/27 03:53:47;;;;;;;5.65;3.80;;;14.80;76.80;;;;;;4978691;28;20034;-64
2021/08/27 03:56:14;;;;;;;4.57;3.08;;;14.80;76.80;;;;;;4980487;28;20590;-64
2021/08/27 03:58:41;;;;;;;4.22;3.33;;;14.80;76.90;;;;;;4979522;28;20402;-64
2021/08/27 04:01:08;;;;;;;5.35;3.45;;;14.80;76.90;;;;;;4977459;28;20034;-64
2021/08/27 04:03:36;;;;;;;5.93;3.78;;;14.80;77.00;;;;;;4976932;28;20026;-64
2021/08/27 04:06:02;;;;;;;6.38;3.80;;;14.90;77.20;;;;;;4968390;28;20840;-64
2021/08/27 04:08:28;;;;;;;5.22;3.92;;;14.90;77.00;;;;;;4977462;28;20018;-64
2021/08/27 04:10:54;;;;;;;5.63;3.53;;;14.90;77.00;;;;;;4974453;28;20022;-64
2021/08/27 04:13:19;;;;;;;4.55;3.75;;;14.90;77.80;;;;;;4974332;28;20050;-64
2021/08/27 04:15:45;;;;;;;4.53;3.60;;;14.90;77.00;;;;;;4973287;28;20035;-64
2021/08/27 04:18:10;;;;;;;3.40;2.95;;;14.90;77.00;;;;;;4975327;28;20042;-64
2021/08/27 04:20:36;;;;;;;6.47;3.63;;;14.90;77.00;;;;;;4974677;28;20061;-65
2021/08/27 04:23:01;;;;;;;5.05;3.35;;;14.90;77.00;;;;;;4981472;28;20034;-64
2021/08/27 04:25:27;;;;;;;6.47;3.75;;;14.90;76.90;;;;;;4984283;28;20030;-64
2021/08/27 04:27:53;;;;;;;5.78;3.70;;;14.90;76.80;;;;;;4994409;28;20031;-64
2021/08/27 04:30:18;;;;;;;6.00;3.95;;;15.00;76.70;;;;;;4977809;28;20037;-64
2021/08/27 04:32:44;;;;;;;6.18;3.60;;;15.00;76.70;;;;;;4979580;28;20049;-64
2021/08/27 04:35:10;;;;;;;6.95;4.10;;;14.90;76.60;;;;;;4980814;28;20035;-64
2021/08/27 04:37:35;;;;;;;6.35;3.60;;;15.00;76.80;;;;;;4977318;28;20029;-64
2021/08/27 04:40:01;;;;;;;6.68;3.78;;;15.00;76.80;;;;;;4984314;28;20026;-64
2021/08/27 04:42:27;;;;;;;4.45;3.60;;;14.90;76.80;;;;;;4989975;28;20829;-64
2021/08/27 04:44:52;;;;;;;9.25;5.47;;;14.90;76.80;;;;;;4981407;28;20093;-64
2021/08/27 04:47:18;;;;;;;8.95;4.18;;;15.00;77.00;;;;;;4977586;28;20046;-64
2021/08/27 04:49:43;;;;;;;7.53;3.88;;;15.00;77.10;;;;;;4977544;28;20026;-64
2021/08/27 04:52:09;;;;;;;5.85;3.90;;;15.00;77.10;;;;;;4974962;28;20034;-64
2021/08/27 04:54:35;;;;;;;6.90;5.43;;;15.00;77.10;;;;;;4977665;28;20037;-65
2021/08/27 04:57:01;;;;;;;6.97;4.50;;;15.00;77.20;;;;;;4989806;28;20034;-64
2021/08/27 04:59:27;;;;;;;8.60;4.38;;;15.00;77.10;;;;;;4992479;28;20038;-64
2021/08/27 05:01:52;;;;;;;10.85;4.50;;;15.00;77.20;;;;;;4981790;28;20561;-63
2021/08/27 05:04:18;;;;;;;8.63;4.70;;;15.00;77.10;;;;;;4980141;28;20038;-64
2021/08/27 05:06:44;;;;;;;6.97;4.72;;;15.00;77.10;;;;;;4971741;28;20117;-65
2021/08/27 05:09:09;;;;;;;6.15;4.25;;;15.00;77.00;;;;;;4982951;28;20031;-64
2021/08/27 05:11:35;;;;;;;9.38;4.20;;;15.00;77.00;;;;;;4991581;28;20498;-64
2021/08/27 05:14:01;;;;;;;8.93;4.72;;;15.00;77.10;;;;;;4982811;28;20474;-65
2021/08/27 05:16:26;;;;;;;6.25;4.10;;;15.00;77.10;;;;;;4977374;28;20038;-64
2021/08/27 05:18:52;;;;;;;5.85;4.18;;;15.00;77.10;;;;;;4981496;28;20042;-64
2021/08/27 05:21:18;;;;;;;5.60;3.95;;;15.00;77.10;;;;;;4978751;28;20561;-64
2021/08/27 05:23:43;;;;;;;6.35;4.05;;;14.90;77.20;;;;;;4975828;28;20035;-64
2021/08/27 05:26:09;;;;;;;6.20;3.67;;;14.90;77.30;;;;;;4982817;28;20521;-63
2021/08/27 05:28:35;;;;;;;8.07;4.47;;;14.90;77.30;;;;;;4980675;28;20383;-62
2021/08/27 05:31:00;;;;;;;7.22;4.47;;;14.90;77.50;;;;;;4979570;28;20033;-63
2021/08/27 05:33:26;;;;;;;5.70;4.15;;;14.90;77.60;;;;;;4970577;28;20030;-64
2021/08/27 05:35:52;;;;;;;4.63;3.83;;;14.90;77.70;;;;;;4974959;28;21754;-64
2021/08/27 05:38:17;;;;;;;5.15;3.80;;;14.90;77.80;;;;;;4974028;28;20093;-63
2021/08/27 05:40:43;;;;;;;4.15;3.67;;;14.90;78.00;;;;;;4975681;28;20047;-63
2021/08/27 05:43:09;;;;;;;5.00;4.20;;;14.90;78.20;;;;;;4982909;28;20052;-64
2021/08/27 05:45:34;;;;;;;6.80;4.40;;;14.90;78.30;;;;;;4998988;28;20101;-64
2021/08/27 05:48:00;;;;;;;8.18;6.10;;;14.90;78.20;;;;;;4982079;28;20034;-63
2021/08/27 05:50:26;;;;;;;8.02;5.82;;;14.90;78.30;;;;;;4986897;28;20065;-64
2021/08/27 05:52:51;;;;;;;5.75;4.40;;;14.90;78.50;;;;;;4986791;28;20038;-64
2021/08/27 05:55:17;;;;;;;8.18;5.18;;;14.90;78.60;;;;;;4983598;28;20033;-63
2021/08/27 05:57:43;;;;;;;5.43;4.82;;;15.00;78.70;;;;;;4980052;28;20408;-64
2021/08/27 06:00:10;;;;;;;8.55;4.63;;;15.00;78.90;;;;;;4979894;28;20031;-64
2021/08/27 06:02:35;;;;;;;8.68;4.78;;;15.00;78.80;;;;;;4983720;28;20042;-64
2021/08/27 06:05:01;;;;;;;7.07;4.43;;;15.00;78.90;;;;;;4977157;28;20114;-63
2021/08/27 06:07:27;;;;;;;7.47;4.70;;;15.00;78.90;;;;;;4982694;28;20039;-64
2021/08/27 06:09:53;;;;;;;5.07;3.85;;;15.00;78.80;;;;;;4983612;28;20038;-63
2021/08/27 06:12:19;;;;;;;5.93;4.60;;;15.10;78.70;;;;;;4968531;28;20083;-63
2021/08/27 06:14:45;;;;;;;7.00;4.40;;;15.10;78.70;;;;;;4972503;28;20561;-64
2021/08/27 06:17:10;;;;;;;5.93;5.03;;;15.10;78.90;;;;;;4981181;28;20042;-64
2021/08/27 06:19:36;;;;;;;7.63;5.25;;;15.10;78.80;;;;;;4976814;28;20684;-63
2021/08/27 06:22:02;;;;;;;7.03;4.25;;;15.10;78.80;;;;;;4972743;28;20129;-63
2021/08/27 06:24:28;;;;;;;7.05;4.60;;;15.10;78.90;;;;;;4970512;28;20182;-63
2021/08/27 06:26:55;;;;;;;5.65;4.68;;;15.20;79.00;;;;;;4974044;28;20125;-64
2021/08/27 06:29:21;;;;;;;6.25;4.80;;;15.20;78.90;;;;;;4979694;28;20039;-63
2021/08/27 06:31:46;;;;;;;6.15;4.57;;;15.10;79.00;;;;;;4984211;28;21431;-63
2021/08/27 06:34:12;;;;;;;5.93;4.63;;;15.20;79.00;;;;;;4973055;28;20116;-64
2021/08/27 06:36:37;;;;;;;5.28;4.22;;;15.10;79.00;;;;;;4972106;28;20063;-63
2021/08/27 06:39:03;;;;;;;7.05;4.70;;;15.20;79.20;;;;;;4947014;28;20043;-64
2021/08/27 06:41:29;;;;;;;5.70;4.35;;;15.20;79.30;;;;;;4949358;28;20217;-64
2021/08/27 06:43:54;;;;;;;6.72;4.88;;;15.20;79.40;;;;;;4965610;28;20030;-64
2021/08/27 06:46:22;;;;;;;7.05;5.60;;;15.20;79.40;;;;;;4959854;28;20088;-64
2021/08/27 06:48:49;;;;;;;6.00;5.10;;;15.20;79.30;;;;;;4958194;28;21028;-64
2021/08/27 06:51:15;;;;;;;7.05;5.20;;;15.20;79.30;;;;;;4951581;28;20046;-63
2021/08/27 06:53:41;;;;;;;6.40;5.18;;;15.20;79.40;;;;;;4954073;28;20125;-64
2021/08/27 06:56:06;;;;;;;9.52;6.05;;;15.30;79.50;;;;;;4955294;28;20478;-64
2021/08/27 06:58:33;;;;;;;8.68;5.90;;;15.30;79.60;;;;;;4952308;28;20173;-64
2021/08/27 07:00:59;;;;;;;7.07;6.03;;;15.30;80.40;;;;;;4957206;28;20027;-64
2021/08/27 07:03:25;;;;;;;13.80;6.38;;;15.30;79.60;;;;;;4962078;28;20154;-65
2021/08/27 07:05:51;;;;;;;8.30;5.93;;;15.30;79.60;;;;;;4959271;28;26688;-64
2021/08/27 07:08:16;;;;;;;7.93;5.90;;;15.30;79.80;;;;;;4953987;28;20035;-65
2021/08/27 07:10:42;;;;;;;8.63;6.25;;;15.30;80.10;;;;;;4950467;28;20046;-64
2021/08/27 07:13:09;;;;;;;8.00;5.75;;;15.30;80.30;;;;;;4952749;28;20070;-65
2021/08/27 07:15:35;;;;;;;9.60;5.78;;;15.30;80.50;;;;;;4952954;28;20067;-64
2021/08/27 07:18:01;;;;;;;6.55;5.80;;;15.30;80.50;;;;;;4966068;28;20027;-64
2021/08/27 07:20:27;;;;;;;8.63;6.07;;;15.30;80.50;;;;;;4954695;28;20050;-64
2021/08/27 07:22:53;;;;;;;7.45;5.50;;;15.30;81.60;;;;;;4955377;28;20449;-64
2021/08/27 07:25:19;;;;;;;8.02;5.35;;;15.30;81.00;;;;;;4953402;28;20533;-63
2021/08/27 07:27:45;;;;;;;7.50;6.05;;;15.30;81.20;;;;;;4954253;28;20043;-64
2021/08/27 07:30:12;;;;;;;7.18;5.70;;;15.30;81.20;;;;;;4955441;28;20026;-63
2021/08/27 07:32:38;;;;;;;7.13;5.57;;;15.40;81.20;;;;;;4958854;28;20122;-64
2021/08/27 07:35:05;;;;;;;7.40;5.60;;;15.40;81.30;;;;;;4969011;28;20138;-64
2021/08/27 07:37:31;;;;;;;6.57;5.75;;;15.40;81.50;;;;;;4972026;28;20548;-64
2021/08/27 07:39:57;;;;;;;6.90;6.20;;;15.40;81.40;;;;;;4952658;28;20041;-63
2021/08/27 07:42:22;;;;;;;7.85;6.00;;;15.50;81.50;;;;;;4965027;28;20094;-63
2021/08/27 07:44:48;;;;;;;6.15;5.55;;;15.50;81.40;;;;;;4953552;28;20042;-63
2021/08/27 07:47:14;;;;;;;6.43;5.63;;;15.50;81.50;;;;;;4962126;28;20177;-63
2021/08/27 07:49:40;;;;;;;7.15;5.82;;;15.60;81.90;;;;;;4951256;28;20058;-64
2021/08/27 07:52:05;;;;;;;8.48;5.57;;;15.60;81.80;;;;;;4957656;28;20043;-64
2021/08/27 07:54:31;;;;;;;6.18;5.00;;;15.60;81.50;;;;;;4968006;28;20548;-63
2021/08/27 07:56:57;;;;;;;5.88;5.03;;;15.70;80.90;;;;;;4964288;28;20050;-63
2021/08/27 07:59:23;;;;;;;5.07;4.57;;;15.70;80.60;;;;;;4974242;28;20041;-64
2021/08/27 08:01:48;;;;;;;5.30;4.80;;;15.70;80.60;;;;;;4986938;28;20038;-64
2021/08/27 08:04:14;;;;;;;5.45;4.70;;;15.70;80.60;;;;;;4969159;28;20154;-64
2021/08/27 08:06:41;;;;;;;5.53;4.78;;;15.70;81.00;;;;;;4977492;28;20068;-64
2021/08/27 08:09:07;;;;;;;4.50;4.10;;;15.80;81.10;;;;;;4981755;28;20127;-64
2021/08/27 08:11:34;;;;;;;4.65;4.10;;;15.80;80.40;;;;;;4975823;28;20478;-64
2021/08/27 08:14:00;;;;;;;7.00;4.60;;;15.80;79.80;;;;;;4975729;28;20039;-64
2021/08/27 08:16:26;;;;;;;6.20;3.97;;;15.80;79.60;;;;;;4977151;28;20041;-65
2021/08/27 08:18:52;;;;;;;4.55;4.03;;;15.90;79.80;;;;;;4971373;28;20042;-64
2021/08/27 08:21:22;;;;;;;5.03;3.72;;;15.90;79.60;;;;;;4980934;28;20062;-63
2021/08/27 08:23:49;;;;;;;4.78;4.10;;;16.00;79.20;;;;;;4976080;28;20057;-64
2021/08/27 08:26:14;;;;;;;6.75;5.22;;;16.10;78.90;;;;;;4978984;28;20117;-64
2021/08/27 08:28:40;;;;;;;4.70;3.97;;;16.20;79.10;;;;;;4975870;28;20586;-64
2021/08/27 08:31:06;;;;;;;6.25;5.00;;;16.30;78.20;;;;;;4978113;28;20402;-64
2021/08/27 08:33:31;;;;;;;6.18;5.60;;;16.30;77.80;;;;;;4972420;28;20038;-64
2021/08/27 08:35:57;;;;;;;5.15;4.05;;;16.40;77.90;;;;;;4976854;28;20042;-65
2021/08/27 08:38:24;;;;;;;4.18;3.78;;;16.40;77.60;;;;;;4979406;28;20528;-63
2021/08/27 08:40:50;;;;;;;4.85;4.30;;;16.40;77.40;;;;;;4977531;28;20062;-64
2021/08/27 08:43:16;;;;;;;7.15;4.65;;;16.40;77.00;;;;;;4991207;28;20062;-65
2021/08/27 08:46:00;;;;;;;4.82;4.35;;;16.40;76.60;;;;;;4994162;28;20045;-65
2021/08/27 08:48:26;;;;;;;6.00;4.43;;;16.40;77.20;;;;;;4975697;28;20046;-64
2021/08/27 08:50:53;;;;;;;5.32;3.90;;;16.40;77.10;;;;;;4979963;28;20117;-65
2021/08/27 08:53:23;;;;;;;6.22;4.18;;;16.50;76.40;;;;;;4977338;28;20422;-64
2021/08/27 08:55:50;;;;;;;5.60;4.45;;;16.50;76.00;;;;;;4978560;28;20106;-64
2021/08/27 08:58:17;;;;;;;7.00;3.97;;;16.50;75.90;;;;;;4974335;28;20041;-65
2021/08/27 09:00:43;;;;;;;4.38;3.88;;;16.60;75.00;;;;;;4976787;28;20073;-64
2021/08/27 09:03:09;;;;;;;4.18;3.58;;;16.60;75.30;;;;;;4975054;28;20067;-64
2021/08/27 09:05:34;;;;;;;4.30;3.10;;;16.60;74.40;;;;;;4983310;28;20068;-64
2021/08/27 09:08:00;;;;;;;5.53;3.63;;;16.60;73.50;;;;;;4981095;28;20046;-65
2021/08/27 09:10:27;;;;;;;4.10;3.38;;;16.60;73.50;;;;;;4977819;28;20106;-63
2021/08/27 09:13:04;;;;;;;7.38;3.55;;;16.60;72.90;;;;;;4995961;28;20097;-65
2021/08/27 09:15:29;;;;;;;3.42;2.90;;;16.60;73.10;;;;;;4965340;28;20062;-64
2021/08/27 09:17:55;;;;;;;4.45;3.38;;;16.70;72.30;;;;;;4965765;28;20117;-64
2021/08/27 09:20:24;;;;;;;3.63;3.00;;;16.70;72.40;;;;;;4978467;28;20042;-65
2021/08/27 09:22:55;;;;;;;3.42;3.13;;;16.70;72.30;;;;;;4971455;28;20405;-64
2021/08/27 09:25:25;;;;;;;4.30;3.20;;;16.80;72.50;;;;;;4978217;28;20045;-64
2021/08/27 09:28:09;;;;;;;3.60;2.80;;;16.80;71.50;;;;;;4979528;28;20054;-64
2021/08/27 09:30:47;;;;;;;3.97;3.35;;;16.80;71.10;;;;;;4981780;28;20057;-65
2021/08/27 09:33:21;;;;;;;5.22;3.22;;;16.90;71.40;;;;;;4984606;28;20089;-65
2021/08/27 09:36:00;;;;;;;4.43;2.88;;;16.80;71.50;;;;;;4982237;28;20038;-65
2021/08/27 09:38:40;;;;;;;5.45;3.40;;;16.80;70.30;;;;;;4977453;28;20035;-64
2021/08/27 09:41:10;;;;;;;4.88;2.90;;;16.80;70.80;;;;;;4992556;28;20058;-64
2021/08/27 09:43:44;;;;;;;3.72;3.15;;;16.80;71.00;;;;;;4974646;28;20039;-64
2021/08/27 09:46:30;;;;;;;7.22;3.17;;;16.80;71.20;;;;;;4981845;28;20038;-65
2021/08/27 09:48:56;;;;;;;4.00;3.05;;;16.90;71.10;;;;;;4977891;28;20130;-64
2021/08/27 09:51:41;;;;;;;4.38;2.90;;;16.90;71.60;;;;;;4985136;28;20125;-64
2021/08/27 09:54:07;;;;;;;4.18;3.08;;;17.00;71.30;;;;;;4962609;28;20092;-64
2021/08/27 09:57:03;;;;;;;3.42;2.95;;;17.00;72.10;;;;;;4964896;28;20114;-64
2021/08/27 09:59:32;;;;;;;;;;;17.10;71.30;;;;;;4961394;28;20043;-65
2021/08/27 10:01:57;;;;;;;3.67;2.72;;;17.20;70.80;;;;;;4958871;28;20125;-65
2021/08/27 10:04:23;;;;;;;4.05;2.80;;;17.30;71.10;;;;;;4955360;28;20558;-65
2021/08/27 10:06:49;;;;;;;3.78;2.63;;;17.40;70.80;;;;;;4957446;28;20863;-65
2021/08/27 10:09:14;;;;;;;5.40;2.20;;;17.50;70.90;;;;;;4958574;28;22364;-64
2021/08/27 10:11:40;;;;;;;3.58;2.40;;;17.50;69.30;;;;;;4956346;28;20057;-65
2021/08/27 10:14:06;;;;;;;4.22;2.33;;;17.50;67.50;;;;;;4965705;28;20097;-64
2021/08/27 10:16:32;;;;;;;3.50;2.30;;;17.60;67.90;;;;;;4980359;28;20034;-64
2021/08/27 10:18:59;;;;;;;2.53;2.22;;;17.60;67.30;;;;;;4984641;28;20520;-64
2021/08/27 10:21:26;;;;;;;2.80;2.00;;;17.60;67.10;;;;;;4984624;28;20026;-64
2021/08/27 10:23:51;;;;;;;3.97;2.00;;;17.60;65.70;;;;;;4975757;28;20035;-64
2021/08/27 10:26:20;;;;;;;3.72;2.10;;;17.60;65.20;;;;;;4988795;28;20434;-65
2021/08/27 10:28:47;;;;;;;2.72;2.00;;;17.60;64.30;;;;;;4987112;28;20513;-64
2021/08/27 10:31:13;;;;;;;4.53;2.00;;;17.60;64.50;;;;;;5003362;28;20117;-64
2021/08/27 10:33:39;;;;;;;3.42;1.88;;;17.70;64.00;;;;;;4984841;28;20034;-65
2021/08/27 10:36:06;;;;;;;2.85;1.90;;;17.70;64.10;;;;;;5000310;28;20414;-64
2021/08/27 10:38:45;;;;;;;2.30;1.95;;;17.70;64.50;;;;;;4981554;28;20061;-64
2021/08/27 10:41:28;;;;;;;3.28;2.00;;;17.80;64.50;;;;;;4985209;28;20049;-64
2021/08/27 10:44:05;;;;;;;4.15;1.90;;;17.80;63.80;;;;;;4979534;28;20114;-65
2021/08/27 10:46:46;;;;;;;2.20;1.90;;;17.90;64.30;;;;;;4974658;28;20036;-64
2021/08/27 10:49:17;;;;;;;2.28;2.08;;;18.00;63.90;;;;;;4980142;28;20034;-64
2021/08/27 10:51:44;;;;;;;2.65;1.80;;;18.00;63.50;;;;;;4995756;28;20038;-65
2021/08/27 10:54:12;;;;;;;2.38;1.83;;;18.00;62.90;;;;;;4981821;28;20074;-65
2021/08/27 10:56:52;;;;;;;1.75;1.60;;;18.10;61.50;;;;;;4981394;28;20034;-65
2021/08/27 10:59:37;;;;;;;1.83;1.70;;;18.10;60.60;;;;;;4984934;28;20510;-65
2021/08/27 11:02:04;;;;;;;1.90;1.73;;;18.10;59.90;;;;;;4985242;28;20046;-64
2021/08/27 11:04:40;;;;;;;2.85;2.03;;;18.00;62.10;;;;;;4985610;28;20038;-65
2021/08/27 11:07:20;;;;;;;2.28;2.00;;;18.00;62.80;;;;;;4979716;28;20030;-65
2021/08/27 11:09:59;;;;;;;2.35;1.92;;;18.00;63.10;;;;;;4985002;28;20031;-65
2021/08/27 11:12:30;;;;;;;2.17;1.98;;;18.10;62.00;;;;;;4980299;28;20034;-64
2021/08/27 11:15:16;;;;;;;5.63;2.10;;;18.10;62.20;;;;;;4986177;28;20029;-64
2021/08/27 11:17:41;;;;;;;3.08;1.80;;;18.10;62.80;;;;;;4984943;28;20113;-64
2021/08/27 11:20:07;;;;;;;4.30;1.73;;;18.10;62.40;;;;;;4985247;28;20023;-65
2021/08/27 11:22:33;;;;;;;2.83;1.80;;;18.10;61.20;;;;;;4979219;28;20081;-64
2021/08/27 11:25:02;;;;;;;2.38;1.80;;;18.20;61.00;;;;;;4983355;28;20409;-65
2021/08/27 11:27:28;;;;;;;1.80;1.70;;;18.30;61.20;;;;;;4985126;28;20034;-65
2021/08/27 11:29:55;;;;;;;2.95;2.17;;;18.30;61.90;;;;;;4982827;28;20039;-65
2021/08/27 11:32:26;;;;;;;2.20;2.00;;;18.40;61.30;;;;;;4983763;28;20042;-65
2021/08/27 11:35:06;;;;;;;2.00;1.77;;;18.40;60.50;;;;;;4979914;28;20045;-65
2021/08/27 11:37:37;;;;;;;1.80;1.63;;;18.50;61.30;;;;;;4984951;28;20057;-65
2021/08/27 11:40:08;;;;;;;4.13;1.95;;;18.60;61.50;;;;;;4984079;28;20125;-65
2021/08/27 11:42:35;;;;;;;1.35;1.23;;;18.70;61.00;;;;;;4981558;28;20046;-64
2021/08/27 11:45:08;;;;;;;1.33;1.10;;;18.70;59.50;;;;;;4984840;28;20050;-64
2021/08/27 11:47:48;;;;;;;1.17;1.00;;;18.70;57.80;;;;;;5041559;28;20464;-65
2021/08/27 11:50:21;;;;;;;1.33;1.00;;;18.70;58.80;;;;;;5017145;28;20037;-65
2021/08/27 11:52:51;;;;;;;3.75;1.00;;;18.70;58.80;;;;;;5020303;28;20033;-65
2021/08/27 11:55:18;;;;;;;2.08;1.10;;;18.70;58.10;;;;;;5021398;28;20032;-65
2021/08/27 11:57:50;;;;;;;1.33;0.82;;;18.60;58.40;;;;;;5021145;28;20417;-65
2021/08/27 12:00:17;;;;;;;1.52;0.82;;;18.60;58.60;;;;;;5019415;28;20401;-63
2021/08/27 12:02:43;;;;;;;1.70;1.05;;;18.50;58.90;;;;;;5020171;28;20474;-65
2021/08/27 12:05:11;;;;;;;3.00;1.30;;;18.50;58.60;;;;;;5021187;28;20501;-65
2021/08/27 12:07:48;;;;;;;2.03;1.40;;;18.40;58.20;;;;;;5021717;28;20049;-65
2021/08/27 12:10:15;;;;;;;1.10;1.00;;;18.40;57.90;;;;;;5020785;28;20036;-65
2021/08/27 12:12:42;;;;;;;0.93;0.90;;;18.40;58.20;;;;;;5018177;28;20045;-64
2021/08/27 12:15:12;;;;;;;2.25;0.93;;;18.40;57.40;;;;;;5020728;28;20394;-65
2021/08/27 12:17:39;;;;;;;1.73;1.10;;;18.40;57.60;;;;;;5019770;28;20619;-65
2021/08/27 12:20:07;;;;;;;1.25;0.85;;;18.40;56.70;;;;;;5020004;28;20398;-64
2021/08/27 12:22:39;;;;;;;0.85;0.80;;;18.40;56.70;;;;;;5016967;28;20526;-64
2021/08/27 12:25:06;;;;;;;4.13;1.10;;;18.50;57.10;;;;;;5019887;28;20030;-64
2021/08/27 12:27:31;;;;;;;1.08;0.98;;;18.50;57.20;;;;;;5020236;28;20113;-64
2021/08/27 12:30:04;;;;;;;2.80;0.73;;;18.60;57.20;;;;;;5020097;28;20137;-65
2021/08/27 12:32:29;;;;;;;1.70;0.90;;;18.70;57.50;;;;;;5019486;28;20043;-64
2021/08/27 12:34:56;;;;;;;1.38;0.80;;;18.80;58.20;;;;;;5021527;28;20416;-65
2021/08/27 12:37:22;;;;;;;1.55;0.70;;;18.80;57.80;;;;;;5012161;28;20041;-65
2021/08/27 12:39:51;;;;;;;1.77;0.80;;;18.90;57.80;;;;;;5008490;28;20038;-64
2021/08/27 12:42:17;;;;;;;1.50;1.00;;;18.90;58.40;;;;;;5008074;28;20032;-64
2021/08/27 12:44:59;;;;;;;1.52;1.10;;;19.00;58.30;;;;;;5006355;28;20505;-64
2021/08/27 12:47:37;;;;;;;2.00;1.00;;;19.00;56.70;;;;;;5015962;28;20045;-64
2021/08/27 12:50:14;;;;;;;1.52;1.00;;;19.10;56.90;;;;;;5016171;28;20065;-64
2021/08/27 12:52:41;;;;;;;1.27;0.80;;;19.10;55.90;;;;;;5016188;28;20026;-64
2021/08/27 12:55:20;;;;;;;2.45;0.73;;;19.10;56.00;;;;;;5018252;28;20532;-65